Tropical Cyclones
[Index]
Main Index Home Page Stock Weather Photos Extreme Storms Discussion Storm News and Storm Chasing Reports Tropical Cyclones / Hurricanes / Typhoons Weather Data and Links Wild Fires / Bushfires Weather Observation Techniques Weather Picture Catalogue Tornado Pictures and Reports Stock Video Footage and DVDs for sale
Season 2008-2009 Tropical Cyclone KEN Track Map
Season 2008-2009 Summaries (Operational Data): [AU] [SIO] [SPAC] [SH]
<<- Previous TC | 2008-2009 Season | Next TC ->>

click for intensity scale information  Lat/long Grid: Show Hide

 Date Labels: Show Hide

Operational Tropical Cyclone Data : JTWC Advisories

Name: KEN
Number: 0921

16 Mar 2009 21:00 UTC to 22 Mar 2009 00:00 UTC

    date/time    lat    long     hPa   cat  kts
2009-03-16 21   21.0   163.1W   1002         30          
2009-03-17 00   20.7   163.1W   1000         30          
2009-03-17 06   21.7   162.3W    995    1    35          
2009-03-17 12   22.2   162.3W    990    1    40          
2009-03-17 18   22.4   163.3W    990    1    40          
2009-03-18 00   22.8   163.2W    990    1    40          
2009-03-18 06   23.5   162.1W    987    1    45          
2009-03-18 12   23.9   161.5W    987    1    45          
2009-03-18 18   24.7   161.0W    985    2    50          
2009-03-19 00   25.6   159.8W    987    1    45          
2009-03-19 06   27.5   158.9W    987    1    45          
2009-03-19 12   28.7   157.3W    985    2    50          
2009-03-19 18   31.2   155.5W    987    1    45          
2009-03-20 00   34.0   153.0W    992    2    50          
2009-03-20 06   39.0   153.0W    992    1    40          
2009-03-20 12   42.0   147.0W    988    1    40          
2009-03-20 18   44.0   145.0W    975    2    50          
2009-03-21 00   44.0   141.0W    975    2    50          
2009-03-21 06   44.0   136.0W    975    2    50          
2009-03-21 12   45.0   131.0W    974    2    50          
2009-03-21 18   45.0   125.0W    973    2    50          
2009-03-22 00   44.0   120.0W    973    2    50          
Winds are 10-min average.

Tropical cyclone tracks developed by Michael Bath using operational warnings and advisories and Google Maps.


[Australian Severe Weather index] [Copyright Notice] [Email Contacts] [Search This Site] [Privacy Policy]
Document: tropical_cyclone_ken.htm Updated: 28 May 2013